Terminal Aerodrome Forecast
Issued by NWS

Home | Current Version | Previous Version | Text Only | Print | Product List | Glossary On
Versions: 1 2 3 4 5 6 7 8 9 10 11 12 13 14
000
FTUS46 KSEW 211120
TAFOLM
TAF
KOLM 211120Z 2112/2212 19007KT P6SM -RA OVC040
     FM211400 19009KT 4SM -RA BR OVC020
     FM211600 19009KT 2SM -RA BR OVC012
     FM211800 19010KT 1 1/2SM -RA BR OVC007
     FM212200 19010G22KT 2SM -RA BR OVC006
     FM220200 20018G28KT 4SM -RA BR OVC012=

USA.gov is the U.S. government's official web portal to all federal, state and local government web resources and services.